sensor_id;sensor_type;location;lat;lon;timestamp;P1;durP1;ratioP1;P2;durP2;ratioP2
74849;SDS011;63397;47.480;19.238;2024-02-16T00:02:07;14.30;;;5.87;;
74849;SDS011;63397;47.480;19.238;2024-02-16T00:05:09;15.05;;;6.90;;
74849;SDS011;63397;47.480;19.238;2024-02-16T00:08:15;16.45;;;6.38;;
74849;SDS011;63397;47.480;19.238;2024-02-16T00:11:18;14.77;;;5.95;;
74849;SDS011;63397;47.480;19.238;2024-02-16T00:14:20;14.10;;;5.93;;
74849;SDS011;63397;47.480;19.238;2024-02-16T00:17:23;18.30;;;6.37;;
74849;SDS011;63397;47.480;19.238;2024-02-16T00:20:28;17.40;;;7.32;;
74849;SDS011;63397;47.480;19.238;2024-02-16T00:23:31;14.93;;;6.22;;
74849;SDS011;63397;47.480;19.238;2024-02-16T00:26:36;16.95;;;5.90;;
74849;SDS011;63397;47.480;19.238;2024-02-16T00:29:38;15.85;;;6.32;;
74849;SDS011;63397;47.480;19.238;2024-02-16T00:32:40;13.57;;;5.73;;
74849;SDS011;63397;47.480;19.238;2024-02-16T00:35:42;15.55;;;5.57;;
74849;SDS011;63397;47.480;19.238;2024-02-16T00:38:45;16.10;;;5.50;;
74849;SDS011;63397;47.480;19.238;2024-02-16T00:41:48;18.45;;;7.32;;
74849;SDS011;63397;47.480;19.238;2024-02-16T00:44:51;17.77;;;7.80;;
74849;SDS011;63397;47.480;19.238;2024-02-16T00:47:53;19.83;;;5.70;;
74849;SDS011;63397;47.480;19.238;2024-02-16T00:50:56;18.60;;;7.90;;
74849;SDS011;63397;47.480;19.238;2024-02-16T00:53:58;17.05;;;6.47;;
74849;SDS011;63397;47.480;19.238;2024-02-16T00:57:00;15.85;;;7.15;;
74849;SDS011;63397;47.480;19.238;2024-02-16T01:00:05;15.15;;;6.40;;
74849;SDS011;63397;47.480;19.238;2024-02-16T01:03:08;17.33;;;5.87;;
74849;SDS011;63397;47.480;19.238;2024-02-16T01:06:10;16.05;;;6.10;;
74849;SDS011;63397;47.480;19.238;2024-02-16T01:09:13;15.13;;;6.13;;
74849;SDS011;63397;47.480;19.238;2024-02-16T01:12:15;17.17;;;6.93;;
74849;SDS011;63397;47.480;19.238;2024-02-16T01:15:17;17.60;;;6.55;;
74849;SDS011;63397;47.480;19.238;2024-02-16T01:18:19;16.57;;;6.97;;
74849;SDS011;63397;47.480;19.238;2024-02-16T01:21:22;17.58;;;6.35;;
74849;SDS011;63397;47.480;19.238;2024-02-16T01:24:24;13.95;;;6.72;;
74849;SDS011;63397;47.480;19.238;2024-02-16T01:27:27;12.52;;;5.80;;
74849;SDS011;63397;47.480;19.238;2024-02-16T01:30:30;17.35;;;6.35;;
74849;SDS011;63397;47.480;19.238;2024-02-16T01:33:32;19.30;;;7.03;;
74849;SDS011;63397;47.480;19.238;2024-02-16T01:36:36;18.48;;;6.22;;
74849;SDS011;63397;47.480;19.238;2024-02-16T01:39:39;19.75;;;6.43;;
74849;SDS011;63397;47.480;19.238;2024-02-16T01:42:41;15.10;;;5.90;;
74849;SDS011;63397;47.480;19.238;2024-02-16T01:45:44;16.42;;;6.93;;
74849;SDS011;63397;47.480;19.238;2024-02-16T01:48:46;15.20;;;6.37;;
74849;SDS011;63397;47.480;19.238;2024-02-16T01:51:48;22.58;;;8.73;;
74849;SDS011;63397;47.480;19.238;2024-02-16T01:54:51;13.88;;;6.70;;
74849;SDS011;63397;47.480;19.238;2024-02-16T01:57:53;18.50;;;6.45;;
74849;SDS011;63397;47.480;19.238;2024-02-16T02:00:56;17.33;;;7.60;;
74849;SDS011;63397;47.480;19.238;2024-02-16T02:03:59;15.30;;;6.10;;
74849;SDS011;63397;47.480;19.238;2024-02-16T02:07:10;19.20;;;7.47;;
74849;SDS011;63397;47.480;19.238;2024-02-16T02:10:12;18.15;;;6.57;;
74849;SDS011;63397;47.480;19.238;2024-02-16T02:13:15;13.65;;;5.68;;
74849;SDS011;63397;47.480;19.238;2024-02-16T02:16:18;16.73;;;6.15;;
74849;SDS011;63397;47.480;19.238;2024-02-16T02:19:20;17.90;;;7.40;;
74849;SDS011;63397;47.480;19.238;2024-02-16T02:22:23;19.80;;;7.30;;
74849;SDS011;63397;47.480;19.238;2024-02-16T02:25:25;20.25;;;7.18;;
74849;SDS011;63397;47.480;19.238;2024-02-16T02:28:30;15.65;;;6.20;;
74849;SDS011;63397;47.480;19.238;2024-02-16T02:31:33;16.20;;;7.22;;
74849;SDS011;63397;47.480;19.238;2024-02-16T02:34:35;23.97;;;7.10;;
74849;SDS011;63397;47.480;19.238;2024-02-16T02:37:38;17.60;;;8.40;;
74849;SDS011;63397;47.480;19.238;2024-02-16T02:40:41;16.30;;;7.28;;
74849;SDS011;63397;47.480;19.238;2024-02-16T02:43:43;14.23;;;7.10;;
74849;SDS011;63397;47.480;19.238;2024-02-16T02:46:45;15.57;;;6.88;;
74849;SDS011;63397;47.480;19.238;2024-02-16T02:49:48;18.27;;;6.50;;
74849;SDS011;63397;47.480;19.238;2024-02-16T02:52:50;14.90;;;6.10;;
74849;SDS011;63397;47.480;19.238;2024-02-16T02:55:52;22.05;;;7.63;;
74849;SDS011;63397;47.480;19.238;2024-02-16T02:58:54;17.13;;;6.75;;
74849;SDS011;63397;47.480;19.238;2024-02-16T03:01:56;17.97;;;7.83;;
74849;SDS011;63397;47.480;19.238;2024-02-16T03:04:58;18.70;;;7.80;;
74849;SDS011;63397;47.480;19.238;2024-02-16T03:08:01;17.45;;;7.53;;
74849;SDS011;63397;47.480;19.238;2024-02-16T03:11:04;20.40;;;7.20;;
74849;SDS011;63397;47.480;19.238;2024-02-16T03:14:06;21.50;;;7.38;;
74849;SDS011;63397;47.480;19.238;2024-02-16T03:17:08;15.53;;;6.73;;
74849;SDS011;63397;47.480;19.238;2024-02-16T03:20:11;16.17;;;6.03;;
74849;SDS011;63397;47.480;19.238;2024-02-16T03:23:14;18.70;;;7.32;;
74849;SDS011;63397;47.480;19.238;2024-02-16T03:26:16;19.05;;;8.18;;
74849;SDS011;63397;47.480;19.238;2024-02-16T03:29:19;19.02;;;6.35;;
74849;SDS011;63397;47.480;19.238;2024-02-16T03:32:21;25.03;;;9.17;;
74849;SDS011;63397;47.480;19.238;2024-02-16T03:35:23;19.70;;;8.03;;
74849;SDS011;63397;47.480;19.238;2024-02-16T03:38:26;23.42;;;10.18;;
74849;SDS011;63397;47.480;19.238;2024-02-16T03:41:28;23.63;;;9.35;;
74849;SDS011;63397;47.480;19.238;2024-02-16T03:44:30;20.25;;;9.00;;
74849;SDS011;63397;47.480;19.238;2024-02-16T03:47:33;25.77;;;8.87;;
74849;SDS011;63397;47.480;19.238;2024-02-16T03:50:35;23.43;;;9.30;;
74849;SDS011;63397;47.480;19.238;2024-02-16T03:53:37;24.92;;;10.02;;
74849;SDS011;63397;47.480;19.238;2024-02-16T03:56:40;24.67;;;9.00;;
74849;SDS011;63397;47.480;19.238;2024-02-16T03:59:45;20.15;;;7.97;;
74849;SDS011;63397;47.480;19.238;2024-02-16T04:02:48;20.37;;;7.90;;
74849;SDS011;63397;47.480;19.238;2024-02-16T04:05:50;28.57;;;9.63;;
74849;SDS011;63397;47.480;19.238;2024-02-16T04:08:52;18.83;;;7.70;;
74849;SDS011;63397;47.480;19.238;2024-02-16T04:11:54;16.77;;;7.70;;
74849;SDS011;63397;47.480;19.238;2024-02-16T04:14:57;15.00;;;6.55;;
74849;SDS011;63397;47.480;19.238;2024-02-16T04:17:59;23.80;;;9.30;;
74849;SDS011;63397;47.480;19.238;2024-02-16T04:21:02;23.67;;;7.90;;
74849;SDS011;63397;47.480;19.238;2024-02-16T04:24:04;17.15;;;7.05;;
74849;SDS011;63397;47.480;19.238;2024-02-16T04:27:06;23.17;;;10.27;;
74849;SDS011;63397;47.480;19.238;2024-02-16T04:30:10;20.85;;;9.18;;
74849;SDS011;63397;47.480;19.238;2024-02-16T04:33:12;19.77;;;8.23;;
74849;SDS011;63397;47.480;19.238;2024-02-16T04:36:15;19.13;;;8.60;;
74849;SDS011;63397;47.480;19.238;2024-02-16T04:39:18;20.15;;;8.57;;
74849;SDS011;63397;47.480;19.238;2024-02-16T04:42:21;20.85;;;8.85;;
74849;SDS011;63397;47.480;19.238;2024-02-16T04:45:24;20.00;;;9.25;;
74849;SDS011;63397;47.480;19.238;2024-02-16T04:48:26;18.80;;;8.57;;
74849;SDS011;63397;47.480;19.238;2024-02-16T04:51:29;24.13;;;10.23;;
74849;SDS011;63397;47.480;19.238;2024-02-16T04:54:32;22.30;;;9.52;;
74849;SDS011;63397;47.480;19.238;2024-02-16T04:57:34;21.85;;;9.52;;
74849;SDS011;63397;47.480;19.238;2024-02-16T05:00:37;23.17;;;8.40;;
74849;SDS011;63397;47.480;19.238;2024-02-16T05:03:39;17.00;;;6.90;;
74849;SDS011;63397;47.480;19.238;2024-02-16T05:06:43;20.80;;;9.77;;
74849;SDS011;63397;47.480;19.238;2024-02-16T05:09:48;16.38;;;7.85;;
74849;SDS011;63397;47.480;19.238;2024-02-16T05:12:51;19.20;;;7.45;;
74849;SDS011;63397;47.480;19.238;2024-02-16T05:15:54;18.55;;;8.60;;
74849;SDS011;63397;47.480;19.238;2024-02-16T05:18:57;20.70;;;10.03;;
74849;SDS011;63397;47.480;19.238;2024-02-16T05:21:59;26.00;;;9.97;;
74849;SDS011;63397;47.480;19.238;2024-02-16T05:25:01;30.98;;;11.90;;
74849;SDS011;63397;47.480;19.238;2024-02-16T05:28:04;18.85;;;9.25;;
74849;SDS011;63397;47.480;19.238;2024-02-16T05:31:13;23.60;;;9.85;;
74849;SDS011;63397;47.480;19.238;2024-02-16T05:34:16;18.13;;;9.67;;
74849;SDS011;63397;47.480;19.238;2024-02-16T05:37:19;21.40;;;7.70;;
74849;SDS011;63397;47.480;19.238;2024-02-16T05:40:22;15.13;;;6.90;;
74849;SDS011;63397;47.480;19.238;2024-02-16T05:43:29;29.85;;;11.13;;
74849;SDS011;63397;47.480;19.238;2024-02-16T05:46:31;31.90;;;11.65;;
74849;SDS011;63397;47.480;19.238;2024-02-16T05:49:34;18.03;;;7.83;;
74849;SDS011;63397;47.480;19.238;2024-02-16T05:52:36;24.13;;;8.83;;
74849;SDS011;63397;47.480;19.238;2024-02-16T05:55:39;14.50;;;7.57;;
74849;SDS011;63397;47.480;19.238;2024-02-16T05:58:41;16.80;;;7.53;;
74849;SDS011;63397;47.480;19.238;2024-02-16T06:01:43;19.95;;;9.80;;
74849;SDS011;63397;47.480;19.238;2024-02-16T06:04:46;16.87;;;7.33;;
74849;SDS011;63397;47.480;19.238;2024-02-16T06:07:52;20.87;;;9.40;;
74849;SDS011;63397;47.480;19.238;2024-02-16T06:11:00;25.13;;;10.10;;
74849;SDS011;63397;47.480;19.238;2024-02-16T06:14:26;18.70;;;7.78;;
74849;SDS011;63397;47.480;19.238;2024-02-16T06:17:44;15.63;;;6.95;;
74849;SDS011;63397;47.480;19.238;2024-02-16T06:20:47;26.67;;;9.57;;
74849;SDS011;63397;47.480;19.238;2024-02-16T06:23:49;20.50;;;8.83;;
74849;SDS011;63397;47.480;19.238;2024-02-16T06:26:51;18.20;;;8.02;;
74849;SDS011;63397;47.480;19.238;2024-02-16T06:29:58;19.85;;;7.88;;
74849;SDS011;63397;47.480;19.238;2024-02-16T06:33:01;16.80;;;6.15;;
74849;SDS011;63397;47.480;19.238;2024-02-16T06:36:04;13.43;;;6.40;;
74849;SDS011;63397;47.480;19.238;2024-02-16T06:43:15;14.15;;;5.95;;
74849;SDS011;63397;47.480;19.238;2024-02-16T06:46:18;12.90;;;6.53;;
74849;SDS011;63397;47.480;19.238;2024-02-16T06:49:20;18.75;;;7.75;;
74849;SDS011;63397;47.480;19.238;2024-02-16T06:52:22;21.97;;;7.90;;
74849;SDS011;63397;47.480;19.238;2024-02-16T06:55:26;17.53;;;8.03;;
74849;SDS011;63397;47.480;19.238;2024-02-16T06:58:28;16.90;;;8.18;;
74849;SDS011;63397;47.480;19.238;2024-02-16T07:01:33;15.60;;;6.50;;
74849;SDS011;63397;47.480;19.238;2024-02-16T07:04:35;22.73;;;8.55;;
74849;SDS011;63397;47.480;19.238;2024-02-16T07:07:39;16.20;;;7.90;;
74849;SDS011;63397;47.480;19.238;2024-02-16T07:10:41;22.03;;;8.60;;
74849;SDS011;63397;47.480;19.238;2024-02-16T07:13:43;18.55;;;7.10;;
74849;SDS011;63397;47.480;19.238;2024-02-16T07:16:46;20.83;;;8.68;;
74849;SDS011;63397;47.480;19.238;2024-02-16T07:19:51;16.63;;;6.90;;
74849;SDS011;63397;47.480;19.238;2024-02-16T07:22:54;16.93;;;7.23;;
74849;SDS011;63397;47.480;19.238;2024-02-16T07:25:56;19.57;;;6.97;;
74849;SDS011;63397;47.480;19.238;2024-02-16T07:28:59;15.93;;;5.88;;
74849;SDS011;63397;47.480;19.238;2024-02-16T07:32:02;18.80;;;7.53;;
74849;SDS011;63397;47.480;19.238;2024-02-16T07:35:05;11.57;;;5.13;;
74849;SDS011;63397;47.480;19.238;2024-02-16T07:38:08;12.23;;;6.37;;
74849;SDS011;63397;47.480;19.238;2024-02-16T07:41:13;19.87;;;8.03;;
74849;SDS011;63397;47.480;19.238;2024-02-16T07:44:15;16.65;;;6.55;;
74849;SDS011;63397;47.480;19.238;2024-02-16T07:47:18;13.07;;;6.03;;
74849;SDS011;63397;47.480;19.238;2024-02-16T07:50:23;14.02;;;6.30;;
74849;SDS011;63397;47.480;19.238;2024-02-16T07:53:25;15.40;;;6.13;;
74849;SDS011;63397;47.480;19.238;2024-02-16T07:56:27;15.43;;;5.67;;
74849;SDS011;63397;47.480;19.238;2024-02-16T07:59:32;19.98;;;6.85;;
74849;SDS011;63397;47.480;19.238;2024-02-16T08:02:37;19.75;;;6.63;;
74849;SDS011;63397;47.480;19.238;2024-02-16T08:05:41;17.65;;;6.50;;
74849;SDS011;63397;47.480;19.238;2024-02-16T08:08:44;11.32;;;3.90;;
74849;SDS011;63397;47.480;19.238;2024-02-16T08:11:46;6.80;;;3.50;;
74849;SDS011;63397;47.480;19.238;2024-02-16T08:14:51;6.85;;;3.13;;
74849;SDS011;63397;47.480;19.238;2024-02-16T08:17:53;9.70;;;4.40;;
74849;SDS011;63397;47.480;19.238;2024-02-16T08:20:58;7.55;;;3.60;;
74849;SDS011;63397;47.480;19.238;2024-02-16T08:24:04;6.55;;;2.75;;
74849;SDS011;63397;47.480;19.238;2024-02-16T08:27:07;10.93;;;3.23;;
74849;SDS011;63397;47.480;19.238;2024-02-16T08:30:12;8.15;;;3.17;;
74849;SDS011;63397;47.480;19.238;2024-02-16T08:33:17;9.60;;;3.60;;
74849;SDS011;63397;47.480;19.238;2024-02-16T08:36:19;7.60;;;3.08;;
74849;SDS011;63397;47.480;19.238;2024-02-16T08:39:26;8.45;;;3.85;;
74849;SDS011;63397;47.480;19.238;2024-02-16T08:42:28;10.67;;;3.83;;
74849;SDS011;63397;47.480;19.238;2024-02-16T08:45:30;11.20;;;2.95;;
74849;SDS011;63397;47.480;19.238;2024-02-16T08:48:33;8.95;;;3.47;;
74849;SDS011;63397;47.480;19.238;2024-02-16T08:51:38;9.88;;;3.47;;
74849;SDS011;63397;47.480;19.238;2024-02-16T08:54:42;8.02;;;3.67;;
74849;SDS011;63397;47.480;19.238;2024-02-16T08:57:45;13.63;;;2.90;;
74849;SDS011;63397;47.480;19.238;2024-02-16T09:00:48;6.80;;;2.90;;
74849;SDS011;63397;47.480;19.238;2024-02-16T09:03:52;6.75;;;3.17;;
74849;SDS011;63397;47.480;19.238;2024-02-16T09:07:02;9.13;;;4.10;;
74849;SDS011;63397;47.480;19.238;2024-02-16T09:10:05;10.80;;;3.75;;
74849;SDS011;63397;47.480;19.238;2024-02-16T09:13:07;8.67;;;3.23;;
74849;SDS011;63397;47.480;19.238;2024-02-16T09:16:11;9.13;;;3.13;;
74849;SDS011;63397;47.480;19.238;2024-02-16T09:19:17;8.50;;;3.75;;
74849;SDS011;63397;47.480;19.238;2024-02-16T09:22:20;9.02;;;4.20;;
74849;SDS011;63397;47.480;19.238;2024-02-16T09:25:37;8.80;;;2.88;;
74849;SDS011;63397;47.480;19.238;2024-02-16T09:28:40;8.60;;;3.63;;
74849;SDS011;63397;47.480;19.238;2024-02-16T09:31:48;7.43;;;3.40;;
74849;SDS011;63397;47.480;19.238;2024-02-16T09:34:51;12.35;;;4.00;;
74849;SDS011;63397;47.480;19.238;2024-02-16T09:37:54;8.68;;;3.63;;
74849;SDS011;63397;47.480;19.238;2024-02-16T09:40:57;10.25;;;3.97;;
74849;SDS011;63397;47.480;19.238;2024-02-16T09:44:00;8.97;;;3.97;;
74849;SDS011;63397;47.480;19.238;2024-02-16T09:47:03;7.30;;;3.45;;
74849;SDS011;63397;47.480;19.238;2024-02-16T09:50:06;8.95;;;3.33;;
74849;SDS011;63397;47.480;19.238;2024-02-16T09:53:12;8.40;;;3.47;;
74849;SDS011;63397;47.480;19.238;2024-02-16T09:56:14;8.50;;;3.10;;
74849;SDS011;63397;47.480;19.238;2024-02-16T09:59:17;8.17;;;3.20;;
74849;SDS011;63397;47.480;19.238;2024-02-16T10:02:19;8.32;;;3.55;;
74849;SDS011;63397;47.480;19.238;2024-02-16T10:05:21;6.30;;;3.40;;
74849;SDS011;63397;47.480;19.238;2024-02-16T10:08:24;9.23;;;3.28;;
74849;SDS011;63397;47.480;19.238;2024-02-16T10:11:28;8.13;;;3.15;;
74849;SDS011;63397;47.480;19.238;2024-02-16T10:14:32;8.27;;;2.90;;
74849;SDS011;63397;47.480;19.238;2024-02-16T10:17:34;7.00;;;2.95;;
74849;SDS011;63397;47.480;19.238;2024-02-16T10:20:38;6.53;;;3.28;;
74849;SDS011;63397;47.480;19.238;2024-02-16T10:23:40;9.73;;;3.38;;
74849;SDS011;63397;47.480;19.238;2024-02-16T10:26:51;8.13;;;3.80;;
74849;SDS011;63397;47.480;19.238;2024-02-16T10:29:57;8.43;;;3.60;;
74849;SDS011;63397;47.480;19.238;2024-02-16T10:32:59;8.93;;;3.83;;
74849;SDS011;63397;47.480;19.238;2024-02-16T10:36:02;10.07;;;3.38;;
74849;SDS011;63397;47.480;19.238;2024-02-16T10:39:07;9.02;;;4.18;;
74849;SDS011;63397;47.480;19.238;2024-02-16T10:42:11;8.88;;;3.83;;
74849;SDS011;63397;47.480;19.238;2024-02-16T10:45:14;12.00;;;4.57;;
74849;SDS011;63397;47.480;19.238;2024-02-16T10:48:20;10.80;;;4.32;;
74849;SDS011;63397;47.480;19.238;2024-02-16T10:51:24;11.45;;;4.03;;
74849;SDS011;63397;47.480;19.238;2024-02-16T10:54:27;9.18;;;3.85;;
74849;SDS011;63397;47.480;19.238;2024-02-16T10:57:36;10.02;;;4.88;;
74849;SDS011;63397;47.480;19.238;2024-02-16T11:00:48;10.67;;;4.40;;
74849;SDS011;63397;47.480;19.238;2024-02-16T11:03:50;9.35;;;4.00;;
74849;SDS011;63397;47.480;19.238;2024-02-16T11:07:09;10.15;;;4.60;;
74849;SDS011;63397;47.480;19.238;2024-02-16T11:10:12;10.05;;;3.50;;
74849;SDS011;63397;47.480;19.238;2024-02-16T11:13:15;10.82;;;4.20;;
74849;SDS011;63397;47.480;19.238;2024-02-16T11:16:23;11.40;;;4.20;;
74849;SDS011;63397;47.480;19.238;2024-02-16T11:19:29;9.32;;;3.65;;
74849;SDS011;63397;47.480;19.238;2024-02-16T11:22:32;9.05;;;4.50;;
74849;SDS011;63397;47.480;19.238;2024-02-16T11:25:39;9.50;;;3.88;;
74849;SDS011;63397;47.480;19.238;2024-02-16T11:28:41;10.10;;;4.50;;
74849;SDS011;63397;47.480;19.238;2024-02-16T11:31:44;10.87;;;4.17;;
74849;SDS011;63397;47.480;19.238;2024-02-16T11:34:48;9.98;;;4.03;;
74849;SDS011;63397;47.480;19.238;2024-02-16T11:37:51;11.07;;;4.03;;
74849;SDS011;63397;47.480;19.238;2024-02-16T11:44:01;12.13;;;4.32;;
74849;SDS011;63397;47.480;19.238;2024-02-16T11:47:04;10.00;;;3.77;;
74849;SDS011;63397;47.480;19.238;2024-02-16T11:50:10;9.95;;;4.15;;
74849;SDS011;63397;47.480;19.238;2024-02-16T11:53:23;10.10;;;4.30;;
74849;SDS011;63397;47.480;19.238;2024-02-16T11:56:26;8.15;;;3.58;;
74849;SDS011;63397;47.480;19.238;2024-02-16T11:59:30;8.70;;;3.80;;
74849;SDS011;63397;47.480;19.238;2024-02-16T12:02:35;9.03;;;4.03;;
74849;SDS011;63397;47.480;19.238;2024-02-16T12:05:39;8.27;;;3.22;;
74849;SDS011;63397;47.480;19.238;2024-02-16T12:08:41;7.82;;;3.55;;
74849;SDS011;63397;47.480;19.238;2024-02-16T12:11:44;8.00;;;3.30;;
74849;SDS011;63397;47.480;19.238;2024-02-16T12:14:46;9.75;;;3.45;;
74849;SDS011;63397;47.480;19.238;2024-02-16T12:17:57;9.17;;;3.27;;
74849;SDS011;63397;47.480;19.238;2024-02-16T12:21:04;7.25;;;2.92;;
74849;SDS011;63397;47.480;19.238;2024-02-16T12:24:11;5.75;;;2.33;;
74849;SDS011;63397;47.480;19.238;2024-02-16T12:27:14;9.82;;;3.80;;
74849;SDS011;63397;47.480;19.238;2024-02-16T12:30:19;8.00;;;3.33;;
74849;SDS011;63397;47.480;19.238;2024-02-16T12:33:26;5.50;;;2.17;;
74849;SDS011;63397;47.480;19.238;2024-02-16T12:36:29;11.52;;;2.88;;
74849;SDS011;63397;47.480;19.238;2024-02-16T12:39:31;9.65;;;3.45;;
74849;SDS011;63397;47.480;19.238;2024-02-16T12:42:38;5.97;;;2.28;;
74849;SDS011;63397;47.480;19.238;2024-02-16T12:45:41;10.23;;;3.38;;
74849;SDS011;63397;47.480;19.238;2024-02-16T12:48:46;8.37;;;2.90;;
74849;SDS011;63397;47.480;19.238;2024-02-16T12:51:51;6.40;;;2.83;;
74849;SDS011;63397;47.480;19.238;2024-02-16T12:54:54;5.95;;;2.17;;
74849;SDS011;63397;47.480;19.238;2024-02-16T12:58:00;9.15;;;2.90;;
74849;SDS011;63397;47.480;19.238;2024-02-16T13:01:03;8.57;;;3.45;;
74849;SDS011;63397;47.480;19.238;2024-02-16T13:04:23;10.10;;;2.43;;
74849;SDS011;63397;47.480;19.238;2024-02-16T13:07:25;9.02;;;3.42;;
74849;SDS011;63397;47.480;19.238;2024-02-16T13:10:27;5.22;;;2.25;;
74849;SDS011;63397;47.480;19.238;2024-02-16T13:13:30;8.73;;;3.17;;
74849;SDS011;63397;47.480;19.238;2024-02-16T13:16:33;7.78;;;3.20;;
74849;SDS011;63397;47.480;19.238;2024-02-16T13:19:36;7.00;;;2.67;;
74849;SDS011;63397;47.480;19.238;2024-02-16T13:22:38;6.18;;;2.45;;
74849;SDS011;63397;47.480;19.238;2024-02-16T13:25:41;7.60;;;3.28;;
74849;SDS011;63397;47.480;19.238;2024-02-16T13:28:43;6.47;;;2.67;;
74849;SDS011;63397;47.480;19.238;2024-02-16T13:31:45;8.05;;;2.90;;
74849;SDS011;63397;47.480;19.238;2024-02-16T13:34:48;5.67;;;2.53;;
74849;SDS011;63397;47.480;19.238;2024-02-16T13:37:50;7.93;;;3.10;;
74849;SDS011;63397;47.480;19.238;2024-02-16T13:40:52;6.15;;;2.97;;
74849;SDS011;63397;47.480;19.238;2024-02-16T13:43:55;7.80;;;2.78;;
74849;SDS011;63397;47.480;19.238;2024-02-16T13:46:57;7.53;;;3.22;;
74849;SDS011;63397;47.480;19.238;2024-02-16T13:49:59;8.83;;;2.70;;
74849;SDS011;63397;47.480;19.238;2024-02-16T13:53:02;5.63;;;2.47;;
74849;SDS011;63397;47.480;19.238;2024-02-16T13:56:04;6.80;;;2.45;;
74849;SDS011;63397;47.480;19.238;2024-02-16T13:59:08;7.38;;;3.08;;
74849;SDS011;63397;47.480;19.238;2024-02-16T14:02:10;9.73;;;3.17;;
74849;SDS011;63397;47.480;19.238;2024-02-16T14:05:13;9.67;;;3.23;;
74849;SDS011;63397;47.480;19.238;2024-02-16T14:08:17;6.22;;;3.00;;
74849;SDS011;63397;47.480;19.238;2024-02-16T14:11:20;12.13;;;3.38;;
74849;SDS011;63397;47.480;19.238;2024-02-16T14:14:22;8.00;;;3.40;;
74849;SDS011;63397;47.480;19.238;2024-02-16T14:17:38;7.30;;;3.30;;
74849;SDS011;63397;47.480;19.238;2024-02-16T14:20:40;6.57;;;2.77;;
74849;SDS011;63397;47.480;19.238;2024-02-16T14:23:43;8.73;;;3.45;;
74849;SDS011;63397;47.480;19.238;2024-02-16T14:26:45;8.05;;;3.40;;
74849;SDS011;63397;47.480;19.238;2024-02-16T14:29:48;8.05;;;4.10;;
74849;SDS011;63397;47.480;19.238;2024-02-16T14:32:50;9.88;;;3.38;;
74849;SDS011;63397;47.480;19.238;2024-02-16T14:35:56;7.50;;;3.43;;
74849;SDS011;63397;47.480;19.238;2024-02-16T14:38:58;9.82;;;3.75;;
74849;SDS011;63397;47.480;19.238;2024-02-16T14:42:00;8.88;;;3.53;;
74849;SDS011;63397;47.480;19.238;2024-02-16T14:45:03;8.85;;;4.05;;
74849;SDS011;63397;47.480;19.238;2024-02-16T14:48:06;9.50;;;3.50;;
74849;SDS011;63397;47.480;19.238;2024-02-16T14:51:08;10.83;;;3.53;;
74849;SDS011;63397;47.480;19.238;2024-02-16T14:54:11;8.45;;;3.25;;
74849;SDS011;63397;47.480;19.238;2024-02-16T14:57:13;8.98;;;3.85;;
74849;SDS011;63397;47.480;19.238;2024-02-16T15:00:16;7.75;;;3.13;;
74849;SDS011;63397;47.480;19.238;2024-02-16T15:03:21;10.00;;;4.60;;
74849;SDS011;63397;47.480;19.238;2024-02-16T15:06:23;9.87;;;3.33;;
74849;SDS011;63397;47.480;19.238;2024-02-16T15:09:25;10.77;;;3.70;;
74849;SDS011;63397;47.480;19.238;2024-02-16T15:12:28;9.65;;;3.47;;
74849;SDS011;63397;47.480;19.238;2024-02-16T15:15:31;11.48;;;4.20;;
74849;SDS011;63397;47.480;19.238;2024-02-16T15:18:35;9.63;;;3.63;;
74849;SDS011;63397;47.480;19.238;2024-02-16T15:21:38;10.17;;;3.73;;
74849;SDS011;63397;47.480;19.238;2024-02-16T15:24:40;8.38;;;3.70;;
74849;SDS011;63397;47.480;19.238;2024-02-16T15:27:42;9.02;;;3.83;;
74849;SDS011;63397;47.480;19.238;2024-02-16T15:30:45;9.52;;;3.65;;
74849;SDS011;63397;47.480;19.238;2024-02-16T15:33:47;7.93;;;3.88;;
74849;SDS011;63397;47.480;19.238;2024-02-16T15:36:50;7.80;;;3.27;;
74849;SDS011;63397;47.480;19.238;2024-02-16T15:39:52;10.80;;;4.18;;
74849;SDS011;63397;47.480;19.238;2024-02-16T15:43:02;12.32;;;4.18;;
74849;SDS011;63397;47.480;19.238;2024-02-16T15:46:04;8.95;;;4.18;;
74849;SDS011;63397;47.480;19.238;2024-02-16T15:49:07;10.85;;;3.90;;
74849;SDS011;63397;47.480;19.238;2024-02-16T15:52:10;10.37;;;4.80;;
74849;SDS011;63397;47.480;19.238;2024-02-16T15:55:12;9.00;;;4.15;;
74849;SDS011;63397;47.480;19.238;2024-02-16T15:58:15;9.52;;;3.85;;
74849;SDS011;63397;47.480;19.238;2024-02-16T16:01:17;11.32;;;3.75;;
74849;SDS011;63397;47.480;19.238;2024-02-16T16:04:20;12.52;;;5.13;;
74849;SDS011;63397;47.480;19.238;2024-02-16T16:07:22;13.63;;;5.50;;
74849;SDS011;63397;47.480;19.238;2024-02-16T16:10:25;15.82;;;4.97;;
74849;SDS011;63397;47.480;19.238;2024-02-16T16:13:27;15.82;;;5.80;;
74849;SDS011;63397;47.480;19.238;2024-02-16T16:16:29;11.43;;;5.00;;
74849;SDS011;63397;47.480;19.238;2024-02-16T16:19:32;10.30;;;4.35;;
74849;SDS011;63397;47.480;19.238;2024-02-16T16:22:34;13.77;;;5.70;;
74849;SDS011;63397;47.480;19.238;2024-02-16T16:25:36;14.05;;;6.18;;
74849;SDS011;63397;47.480;19.238;2024-02-16T16:28:39;14.88;;;6.70;;
74849;SDS011;63397;47.480;19.238;2024-02-16T16:31:42;15.07;;;5.75;;
74849;SDS011;63397;47.480;19.238;2024-02-16T16:34:44;13.38;;;5.65;;
74849;SDS011;63397;47.480;19.238;2024-02-16T16:37:46;14.80;;;6.03;;
74849;SDS011;63397;47.480;19.238;2024-02-16T16:40:49;16.30;;;6.35;;
74849;SDS011;63397;47.480;19.238;2024-02-16T16:43:51;14.88;;;5.95;;
74849;SDS011;63397;47.480;19.238;2024-02-16T16:46:53;17.40;;;6.63;;
74849;SDS011;63397;47.480;19.238;2024-02-16T16:49:56;15.93;;;5.43;;
74849;SDS011;63397;47.480;19.238;2024-02-16T16:52:59;15.87;;;5.53;;
74849;SDS011;63397;47.480;19.238;2024-02-16T16:56:01;14.60;;;6.30;;
74849;SDS011;63397;47.480;19.238;2024-02-16T16:59:03;14.93;;;5.80;;
74849;SDS011;63397;47.480;19.238;2024-02-16T17:02:05;12.73;;;5.10;;
74849;SDS011;63397;47.480;19.238;2024-02-16T17:05:08;14.57;;;6.10;;
74849;SDS011;63397;47.480;19.238;2024-02-16T17:08:10;12.77;;;5.33;;
74849;SDS011;63397;47.480;19.238;2024-02-16T17:11:12;14.02;;;5.60;;
74849;SDS011;63397;47.480;19.238;2024-02-16T17:14:16;16.13;;;6.22;;
74849;SDS011;63397;47.480;19.238;2024-02-16T17:17:19;13.25;;;5.10;;
74849;SDS011;63397;47.480;19.238;2024-02-16T17:20:21;14.20;;;4.85;;
74849;SDS011;63397;47.480;19.238;2024-02-16T17:23:26;15.87;;;5.57;;
74849;SDS011;63397;47.480;19.238;2024-02-16T17:26:28;12.40;;;5.28;;
74849;SDS011;63397;47.480;19.238;2024-02-16T17:29:31;12.07;;;5.53;;
74849;SDS011;63397;47.480;19.238;2024-02-16T17:32:33;17.17;;;6.05;;
74849;SDS011;63397;47.480;19.238;2024-02-16T17:35:36;14.38;;;5.57;;
74849;SDS011;63397;47.480;19.238;2024-02-16T17:38:41;14.70;;;6.37;;
74849;SDS011;63397;47.480;19.238;2024-02-16T17:41:43;13.80;;;5.95;;
74849;SDS011;63397;47.480;19.238;2024-02-16T17:44:45;14.32;;;5.30;;
74849;SDS011;63397;47.480;19.238;2024-02-16T17:47:48;14.73;;;6.03;;
74849;SDS011;63397;47.480;19.238;2024-02-16T17:50:50;15.77;;;7.57;;
74849;SDS011;63397;47.480;19.238;2024-02-16T17:53:52;18.80;;;6.47;;
74849;SDS011;63397;47.480;19.238;2024-02-16T17:56:55;11.38;;;5.00;;
74849;SDS011;63397;47.480;19.238;2024-02-16T17:59:57;15.30;;;6.95;;
74849;SDS011;63397;47.480;19.238;2024-02-16T18:02:59;17.10;;;5.80;;
74849;SDS011;63397;47.480;19.238;2024-02-16T18:06:02;16.42;;;6.40;;